Countryside, Kansas
Current Conditions -  °F | °C
As of 8:54 PM on Friday 21 Nov 2014 (Local Time) from KMKC Reporting Station
Overcast Overcast  
Wind Chill: 46°   Ceiling: 1700
Heat Index: 48°   Visibility: 10mi
Dew Point: 41°   Wind: 5mph
Humidity: 77%   Direction: NA
Pressure: 30.06"   Gusts: NA
Location:  39.0241°N, 94.6697°W
Report Text: KMKC 220254Z VRB04KT 10SM OVC017 09/05 A3006 RMK AO2 SLP184 T00890050 58007
Loading
Personal Weather Stations






























Interactive Weather Map New forecast layout! Learn more

10-Day Weather Forecast

Advertisements
Track Severe Weather on mobile